»·PEaware :: N501ER KWHP-KFAT

N501ER :: KWHP-KFAT

FLIGHT INFORMATION

Flight Status: Arrived
Operator: Privately registered:
United States
More flights under this callsign
Pilot: Jon S. (43478)
Aircraft: CESSNA 172 SKYHAWK
(C172)
More flights by this aircraft type
Origin: KWHP Whiteman
United States
Destination: KFAT Fresno Yosemite Intl
United States
More flights between these airports :: More routes between these airports
Route:
File this flight plan on PilotEdge
Remarks:
Altitude:
(Current/Filed)
8,500ft
Speed:
(Current/Filed)
110kts
Departed: 03-Sep-23 06:07 PM
Arrived: 03-Sep-23 07:43 PM
Distance/Time
Traveled:
164nm/1:36
Distance/Time
To Go:
Arrived

Flight Plot

Page will automatically refresh every two minutes.

Flight plan parsing failed; only flown route is shown


Map Options




Map Legend


Flown Route
Filed Route
Departure Airport
Arrival Airport
Navaid (VOR, NDB)
Fix

Horizontal Profiles

Position Reports

Time Latitude Longitude Heading Altitude Ground
Speed
03-Sep-23 17:57 34.260716 -118.411921 320 999ft 0kts
03-Sep-23 17:58 34.260716 -118.411921 320 999ft 0kts
03-Sep-23 17:59 34.260716 -118.411921 320 999ft 0kts
03-Sep-23 18:00 34.260716 -118.411921 320 999ft 0kts
03-Sep-23 18:01 34.260716 -118.411921 320 999ft 0kts
03-Sep-23 18:02 34.260716 -118.411921 320 999ft 0kts
03-Sep-23 18:03 34.260746 -118.412100 264 1000ft 2kts
03-Sep-23 18:04 34.261374 -118.414980 319 999ft 16kts
03-Sep-23 18:05 34.263573 -118.417033 293 1000ft 0kts
03-Sep-23 18:06 34.263674 -118.417348 289 1000ft 0kts
03-Sep-23 18:07 34.257538 -118.411338 137 1168ft 77kts
03-Sep-23 18:08 34.256111 -118.393286 2 2182ft 77kts
03-Sep-23 18:09 34.274226 -118.409346 310 3053ft 85kts
03-Sep-23 18:09 34.290215 -118.426921 320 3770ft 96kts
03-Sep-23 18:10 34.313881 -118.442287 330 4696ft 93kts
03-Sep-23 18:12 34.338902 -118.459996 336 5651ft 91kts
03-Sep-23 18:13 34.363681 -118.469243 342 6376ft 95kts
03-Sep-23 18:14 34.387959 -118.479082 336 7126ft 91kts
03-Sep-23 18:14 34.409554 -118.488093 337 7599ft 108kts
03-Sep-23 18:15 34.438410 -118.498423 339 8212ft 118kts
03-Sep-23 18:16 34.472406 -118.511780 334 8446ft 130kts
03-Sep-23 18:17 34.505192 -118.530630 324 8499ft 132kts
03-Sep-23 18:18 34.536380 -118.554366 321 8651ft 126kts
03-Sep-23 18:19 34.566431 -118.578185 322 8643ft 129kts
03-Sep-23 18:20 34.600226 -118.596085 336 8745ft 136kts
03-Sep-23 18:21 34.628914 -118.605307 335 8778ft 95kts
03-Sep-23 18:22 34.655190 -118.616787 333 8542ft 98kts
03-Sep-23 18:23 34.683540 -118.628315 333 8519ft 104kts
03-Sep-23 18:24 34.712893 -118.637029 345 7734ft 113kts
03-Sep-23 18:25 34.742620 -118.637982 345 7506ft 104kts
03-Sep-23 18:26 34.769760 -118.647248 322 7776ft 80kts
03-Sep-23 18:27 34.781645 -118.663375 282 8524ft 63kts
03-Sep-23 18:28 34.787615 -118.686352 325 8657ft 99kts
03-Sep-23 18:29 34.808995 -118.693067 338 8699ft 103kts
03-Sep-23 18:30 34.830844 -118.700879 329 8713ft 102kts
03-Sep-23 18:31 34.850204 -118.711721 324 8712ft 104kts
03-Sep-23 18:32 34.867800 -118.722586 325 8807ft 101kts
03-Sep-23 18:33 34.886882 -118.734024 324 8900ft 100kts
03-Sep-23 18:34 34.903642 -118.742098 330 8352ft 102kts
03-Sep-23 18:35 34.922236 -118.753095 326 7639ft 104kts
03-Sep-23 18:36 34.948289 -118.770684 324 6701ft 101kts
03-Sep-23 18:37 34.984496 -118.794484 326 6174ft 97kts
03-Sep-23 18:38 35.020694 -118.820275 331 5913ft 97kts
03-Sep-23 18:39 35.052185 -118.839080 331 5885ft 91kts
03-Sep-23 18:40 35.076079 -118.853880 331 6033ft 105kts
03-Sep-23 18:41 35.103988 -118.868673 333 6041ft 111kts
03-Sep-23 18:42 35.132587 -118.883440 332 6049ft 112kts
03-Sep-23 18:43 35.161406 -118.898305 333 6055ft 113kts
03-Sep-23 18:44 35.190409 -118.913169 333 6060ft 113kts
03-Sep-23 18:45 35.218592 -118.927631 333 6064ft 113kts
03-Sep-23 18:46 35.247656 -118.942621 333 6068ft 113kts
03-Sep-23 18:47 35.276739 -118.957701 333 6071ft 113kts
03-Sep-23 18:48 35.305764 -118.972833 333 6074ft 113kts
03-Sep-23 18:49 35.334801 -118.988054 333 6076ft 113kts
03-Sep-23 18:50 35.363965 -119.003426 333 6077ft 113kts
03-Sep-23 18:51 35.393065 -119.018850 333 6078ft 113kts
03-Sep-23 18:52 35.422375 -119.033350 336 6079ft 114kts
03-Sep-23 18:53 35.452085 -119.046823 336 6078ft 114kts
03-Sep-23 18:54 35.481819 -119.060330 336 6077ft 114kts
03-Sep-23 18:55 35.511487 -119.073823 336 6076ft 114kts
03-Sep-23 18:57 35.570206 -119.101877 336 6071ft 120kts
03-Sep-23 18:58 35.601423 -119.119025 336 6077ft 124kts
03-Sep-23 18:59 35.632982 -119.136373 336 6077ft 124kts
03-Sep-23 19:00 35.663537 -119.153190 336 6077ft 125kts
03-Sep-23 19:01 35.695555 -119.169814 339 6077ft 125kts
03-Sep-23 19:02 35.727841 -119.185161 339 6077ft 125kts
03-Sep-23 19:03 35.760216 -119.200568 339 6076ft 125kts
03-Sep-23 19:04 35.792834 -119.216105 339 6076ft 125kts
03-Sep-23 19:05 35.825218 -119.231549 339 6075ft 125kts
03-Sep-23 19:06 35.857470 -119.246945 339 6075ft 125kts
03-Sep-23 19:07 35.889880 -119.262421 339 6075ft 125kts
03-Sep-23 19:08 35.921829 -119.276355 339 6071ft 118kts
03-Sep-23 19:09 35.952771 -119.289025 339 6058ft 116kts
03-Sep-23 19:10 35.983153 -119.302037 338 6048ft 115kts
03-Sep-23 19:11 36.013459 -119.315099 338 6037ft 115kts
03-Sep-23 19:12 36.043755 -119.328161 338 6026ft 115kts
03-Sep-23 19:13 36.073795 -119.341124 338 6012ft 113kts
03-Sep-23 19:14 36.103531 -119.353940 338 5999ft 112kts
03-Sep-23 19:15 36.132935 -119.366620 338 5998ft 112kts
03-Sep-23 19:16 36.162258 -119.379279 338 5996ft 111kts
03-Sep-23 19:17 36.191556 -119.391942 338 5995ft 111kts
03-Sep-23 19:18 36.221256 -119.404809 338 5894ft 111kts
03-Sep-23 19:19 36.249008 -119.416844 338 5574ft 102kts
03-Sep-23 19:20 36.277260 -119.429184 338 5548ft 114kts
03-Sep-23 19:21 36.307044 -119.442317 338 5542ft 113kts
03-Sep-23 19:22 36.336686 -119.455395 338 5538ft 113kts
03-Sep-23 19:23 36.366358 -119.468502 338 5533ft 113kts
03-Sep-23 19:24 36.395933 -119.481582 338 5528ft 113kts
03-Sep-23 19:25 36.425506 -119.494679 338 5523ft 113kts
03-Sep-23 19:26 36.455165 -119.507830 338 5517ft 113kts
03-Sep-23 19:27 36.484705 -119.520947 338 5510ft 113kts
03-Sep-23 19:28 36.514000 -119.533662 340 5535ft 98kts
03-Sep-23 19:29 36.540085 -119.544807 331 5448ft 97kts
03-Sep-23 19:30 36.564912 -119.559785 337 5379ft 104kts
03-Sep-23 19:31 36.592278 -119.564955 354 5331ft 104kts
03-Sep-23 19:32 36.621185 -119.563976 354 5113ft 105kts
03-Sep-23 19:33 36.649647 -119.564318 358 4947ft 102kts
03-Sep-23 19:34 36.676845 -119.558569 335 4609ft 98kts
03-Sep-23 19:35 36.695133 -119.582218 302 3973ft 97kts
03-Sep-23 19:36 36.711072 -119.608960 308 3074ft 96kts
03-Sep-23 19:37 36.724316 -119.630967 306 2432ft 76kts
03-Sep-23 19:38 36.736915 -119.652828 310 1721ft 74kts
03-Sep-23 19:39 36.748284 -119.672404 308 1232ft 62kts
03-Sep-23 19:40 36.758532 -119.690092 306 905ft 64kts
03-Sep-23 19:41 36.768966 -119.707859 309 485ft 63kts
03-Sep-23 19:42 36.775434 -119.719001 306 329ft 20kts
03-Sep-23 19:43 36.775932 -119.722441 205 330ft 0kts
03-Sep-23 19:44 36.776257 -119.724677 305 328ft 10kts
03-Sep-23 19:45 36.776300 -119.726207 305 328ft 0kts

Navigation Log

Ident Type
Flight plan parsing failed, navigation log unavailable